Date,TemperatureHighF,TemperatureAvgF,TemperatureLowF,DewpointHighF,DewpointAvgF,DewpointLowF,HumidityHigh,HumidityAvg,HumidityLow,PressureMaxIn,PressureMinIn,WindSpeedMaxMPH,WindSpeedAvgMPH,GustSpeedMaxMPH,PrecipitationSumIn
2013-5-1,82,70,64,64,61,54,92,75,44,29.88,29.65,10,3,10,0.00
2013-5-2,67,63,59,59,50,46,76,63,50,30.06,29.79,15,4,15,0.00
2013-5-3,71,62,55,54,50,48,80,66,47,30.06,29.85,8,2,8,0.00
2013-5-4,73,64,58,57,48,45,71,57,43,29.97,29.76,18,4,18,0.00
2013-5-5,62,59,57,48,45,44,66,60,54,30.00,29.91,10,3,10,0.00
2013-5-6,66,59,54,56,50,45,88,72,62,30.06,29.97,11,3,11,0.04
2013-5-7,68,61,57,59,55,53,88,81,69,30.12,30.03,6,1,6,0.04
2013-5-8,68,62,58,61,57,55,93,83,65,30.15,30.06,6,1,6,0.00
2013-5-9,72,62,56,60,56,53,92,79,61,30.15,30.06,6,1,6,0.00
2013-5-10,70,62,56,58,54,51,87,77,54,30.15,30.06,6,1,6,0.00
2013-5-11,69,64,61,63,59,57,91,84,74,30.15,30.03,6,2,6,0.00
2013-5-12,70,63,57,60,57,54,93,81,65,30.06,29.91,6,1,6,0.00
2013-5-13,70,62,57,58,56,54,90,79,62,29.91,29.68,8,2,8,0.00
2013-5-14,66,62,58,58,56,52,89,83,74,29.68,29.59,12,2,12,0.09
2013-5-15,67,58,50,48,44,41,78,61,48,29.74,29.56,14,5,14,0.00
2013-5-16,69,62,58,48,44,42,58,52,44,29.65,29.50,18,7,18,0.00
2013-5-17,57,55,54,44,43,42,66,63,59,29.62,29.62,11,6,11,0.00
2013-5-19,64,60,52,41,39,36,57,46,42,29.79,29.74,10,4,10,0.00
2013-5-20,64,56,50,42,38,33,56,50,41,29.85,29.74,10,4,10,0.00
2013-5-21,70,60,52,47,41,38,58,50,41,29.79,29.65,13,4,13,0.00
2013-5-22,63,59,55,52,46,40,82,63,53,29.74,29.56,8,1,8,0.20
2013-5-23,62,56,53,58,54,49,98,91,77,29.71,29.56,20,3,20,2.32
2013-5-24,65,60,57,57,54,48,98,81,58,29.85,29.71,23,4,23,0.29
2013-5-25,66,59,54,55,52,50,90,79,64,29.97,29.85,10,3,10,0.04
2013-5-26,66,57,50,50,47,43,84,69,45,30.03,29.94,8,2,8,0.00
2013-5-27,60,56,52,57,51,45,93,83,75,30.15,30.00,5,1,5,0.30
2013-5-28,66,60,56,62,57,54,95,89,79,30.24,30.15,6,1,6,0.04
2013-5-29,68,61,56,58,55,53,92,81,66,30.18,30.09,8,2,8,0.00
2013-5-30,69,60,53,56,53,50,90,79,59,30.15,30.03,9,2,9,0.00
2013-5-31,70,62,55,57,54,50,86,77,59,30.12,29.97,8,3,8,0.00